Decoded Metar for LTFJ (SABIHA GOKCEN in TURKEY) (IATA:N/A) | Meteo·Mobile Aviation Weather
aviador You're here:

LTFJ Decoded Metar

SABIHA GOKCEN in TURKEY
Report Time2019-04-26 11:20:00
UTC Time2019-04-26 11:53:35
Flight Rules vfr VFR
Wind180° at 05 kt
W.Decomp.*RWY 24: 2.2 kt HW 4.5 kt LCW
Visibility9999 m
Phenomena:N/A
Clouds:N/A
Expected CloudBase > 3,600 ft AGL from Temp-Dew spread
CeilingNone
Temp20°C (ISA +6)
Dew Point11°C (56% RH)
AAT18.5°C
QNH1020 hPa
Density Alt925 ft
Elevation322 ft
Report Wrong Elevation
Raw Report
LTFJ 261120Z 18005KT 120V230 CAVOK 20/11 Q1020 NOSIG=

Extra information for LTFJ:More info

Metar Taf Metar & Taf Last 4 Metars F.Rules Stats Wind Profile Meteogram Temp Stats Airport Information Weather charts Add Link Nearby VenuesMetar ALERT Operation Metar Decoded Social comments